Reece City, Alabama
Current Conditions -  °F | °C
As of 7:35 PM on Monday 22 Dec 2014 (Local Time) from KGAD Reporting Station
Overcast Overcast  
Wind Chill:   Ceiling: 1100
Heat Index:   Visibility: 10mi
Dew Point:   Wind: 7mph
Humidity: 87%   Direction: 70°ENE
Pressure: 29.84"   Gusts: NA
Location:  34.0771°N, 86.0689°W
Report Text: KGAD 230135Z 07006KT 10SM OVC011 09/07 A2984 RMK AO1 P0002
Loading
Personal Weather Stations






























Interactive Weather Map New forecast layout! Learn more

10-Day Weather Forecast

Advertisements
Track Severe Weather on mobile